Archiv-/Tagesdaten

--Timestamp---	Temp	Chill	HIndex	Humid	Dewpt	 Wind 	HiWind	WindDir	Rain 	Barom	Solar	 ET  	 UV 
--------------	----	-----	------	-----	-----	------	------	-------	-----	-----	-----	-----	----
20110429 00:00	10.6	10.6	10.6	71	5.6	6	11	68	0.0	1009.2	0	0.025	0.0
20110429 00:05	10.6	10.6	10.6	72	5.7	10	16	68	0.0	1009.0	0	0.000	0.0
20110429 00:10	10.5	10.5	10.5	72	5.7	10	13	68	0.0	1009.0	0	0.000	0.0
20110429 00:15	10.3	10.3	10.3	73	5.7	11	16	68	0.0	1009.0	0	0.000	0.0
20110429 00:20	10.4	10.4	10.4	72	5.6	10	18	68	0.0	1009.0	0	0.000	0.0
20110429 00:25	10.5	10.5	10.5	72	5.7	6	13	68	0.0	1009.0	0	0.000	0.0
20110429 00:30	10.6	10.6	10.6	72	5.7	6	14	90	0.0	1009.0	0	0.000	0.0
20110429 00:35	10.6	10.6	10.6	72	5.8	6	11	90	0.0	1008.9	0	0.000	0.0
20110429 00:40	10.6	10.6	10.6	72	5.8	6	14	90	0.0	1008.9	0	0.000	0.0
20110429 00:45	10.6	10.6	10.6	72	5.7	8	14	90	0.0	1008.9	0	0.000	0.0
20110429 00:50	10.5	10.5	10.5	72	5.7	8	14	90	0.0	1008.8	0	0.000	0.0
20110429 00:55	10.6	10.6	10.6	71	5.5	8	16	90	0.0	1008.8	0	0.000	0.0
20110429 01:00	10.6	10.6	10.6	71	5.5	8	16	90	0.0	1008.8	0	0.025	0.0
20110429 01:05	10.6	10.6	10.6	70	5.4	8	18	90	0.0	1008.6	0	0.000	0.0
20110429 01:10	10.7	10.7	10.7	70	5.4	8	14	90	0.0	1008.6	0	0.000	0.0
20110429 01:15	10.6	10.6	10.6	70	5.4	5	11	90	0.0	1008.6	0	0.000	0.0
20110429 01:20	10.6	10.6	10.6	70	5.3	6	14	90	0.0	1008.6	0	0.000	0.0
20110429 01:25	10.6	10.6	10.6	70	5.3	8	18	90	0.0	1008.6	0	0.000	0.0
20110429 01:30	10.6	10.6	10.6	71	5.5	8	18	135	0.0	1008.6	0	0.000	0.0
20110429 01:35	10.5	10.5	10.5	70	5.3	6	13	135	0.0	1008.6	0	0.000	0.0
20110429 01:40	10.4	10.4	10.4	71	5.4	6	11	112	0.0	1008.6	0	0.000	0.0
20110429 01:45	10.4	10.4	10.4	71	5.4	6	16	90	0.0	1008.5	0	0.000	0.0
20110429 01:50	10.4	10.4	10.4	71	5.4	5	11	135	0.0	1008.5	0	0.000	0.0
20110429 01:55	10.4	10.4	10.4	71	5.4	6	16	90	0.0	1008.5	0	0.000	0.0
20110429 02:00	10.3	10.3	10.3	71	5.3	3	8	90	0.0	1008.4	0	0.025	0.0
20110429 02:05	10.3	10.3	10.3	71	5.3	5	11	90	0.0	1008.3	0	0.000	0.0
20110429 02:10	10.2	10.2	10.2	71	5.2	6	16	90	0.0	1008.2	0	0.000	0.0
20110429 02:15	10.3	10.3	10.3	70	5.0	10	19	112	0.0	1008.2	0	0.000	0.0
20110429 02:20	10.4	10.4	10.4	70	5.2	10	23	90	0.0	1008.1	0	0.000	0.0
20110429 02:25	10.4	10.4	10.4	70	5.2	8	18	112	0.0	1008.1	0	0.000	0.0
20110429 02:30	10.4	10.4	10.4	69	5.0	8	16	112	0.0	1008.1	0	0.000	0.0
20110429 02:35	10.4	10.4	10.4	69	5.0	10	24	90	0.0	1008.1	0	0.000	0.0
20110429 02:40	10.4	10.4	10.4	69	5.0	8	16	112	0.0	1008.0	0	0.000	0.0
20110429 02:45	10.4	10.4	10.4	69	4.9	6	14	135	0.0	1008.0	0	0.000	0.0
20110429 02:50	10.3	10.3	10.3	70	5.1	6	18	135	0.0	1008.0	0	0.000	0.0
20110429 02:55	10.2	10.2	10.2	70	5.0	6	16	112	0.0	1008.0	0	0.000	0.0
20110429 03:00	10.2	10.2	10.2	70	4.9	6	14	112	0.0	1007.9	0	0.025	0.0
20110429 03:05	10.2	10.2	10.2	70	4.9	6	13	135	0.0	1007.8	0	0.000	0.0
20110429 03:10	10.1	10.1	10.1	71	5.0	6	14	135	0.0	1007.8	0	0.000	0.0
20110429 03:15	10.0	10.0	10.0	71	5.0	6	14	135	0.0	1007.8	0	0.000	0.0
20110429 03:20	9.9	9.3	9.9	71	4.9	6	13	112	0.0	1007.8	0	0.000	0.0
20110429 03:25	9.9	9.9	9.9	71	4.9	5	8	112	0.0	1007.8	0	0.000	0.0
20110429 03:30	9.9	8.9	9.9	71	4.9	8	18	90	0.0	1007.8	0	0.000	0.0
20110429 03:35	9.8	9.8	9.8	72	5.0	5	8	90	0.0	1007.8	0	0.000	0.0
20110429 03:40	9.8	8.8	9.8	72	5.0	8	16	90	0.0	1007.7	0	0.000	0.0
20110429 03:45	9.8	9.2	9.8	72	5.0	6	13	112	0.0	1007.8	0	0.000	0.0
20110429 03:50	9.8	8.8	9.8	71	4.8	8	18	135	0.0	1007.8	0	0.000	0.0
20110429 03:55	9.8	8.8	9.8	71	4.8	8	14	90	0.0	1007.8	0	0.000	0.0
20110429 04:00	9.8	9.2	9.8	71	4.8	6	11	112	0.0	1007.7	0	0.025	0.0
20110429 04:05	9.8	9.2	9.8	71	4.8	6	16	90	0.0	1007.6	0	0.000	0.0
20110429 04:10	9.8	9.1	9.8	71	4.8	6	11	135	0.0	1007.5	0	0.000	0.0
20110429 04:15	9.7	9.1	9.7	71	4.7	6	16	90	0.0	1007.5	0	0.000	0.0
20110429 04:20	9.6	9.6	9.6	72	4.8	5	13	112	0.0	1007.5	0	0.000	0.0
20110429 04:25	9.5	9.5	9.5	72	4.7	5	8	112	0.0	1007.6	0	0.000	0.0
20110429 04:30	9.3	9.3	9.3	73	4.7	5	13	135	0.0	1007.5	0	0.000	0.0
20110429 04:35	9.2	9.2	9.2	73	4.6	5	11	112	0.0	1007.5	0	0.000	0.0
20110429 04:40	9.2	8.4	9.2	73	4.6	6	13	112	0.0	1007.4	0	0.000	0.0
20110429 04:45	9.2	8.4	9.2	73	4.6	6	11	112	0.0	1007.4	0	0.000	0.0
20110429 04:50	9.1	9.1	9.1	73	4.5	5	16	135	0.0	1007.4	0	0.000	0.0
20110429 04:55	9.0	8.2	9.0	74	4.6	6	14	135	0.0	1007.4	0	0.000	0.0
20110429 05:00	8.9	8.1	8.9	74	4.5	6	10	112	0.0	1007.4	0	0.025	0.0
20110429 05:05	8.8	8.8	8.8	75	4.6	5	10	112	0.0	1007.6	0	0.000	0.0
20110429 05:10	8.7	8.7	8.7	75	4.5	5	8	135	0.0	1007.6	0	0.000	0.0
20110429 05:15	8.6	8.6	8.6	75	4.4	5	8	112	0.0	1007.6	0	0.000	0.0
20110429 05:20	8.5	8.5	8.5	76	4.5	3	6	112	0.0	1007.6	0	0.000	0.0
20110429 05:25	8.4	8.4	8.4	76	4.5	5	8	135	0.0	1007.6	0	0.000	0.0
20110429 05:30	8.4	8.4	8.4	76	4.4	3	8	135	0.0	1007.6	0	0.000	0.0
20110429 05:35	8.4	8.4	8.4	76	4.4	3	8	90	0.0	1007.6	0	0.000	0.0
20110429 05:40	8.4	8.4	8.4	76	4.4	5	8	135	0.0	1007.7	0	0.000	0.0
20110429 05:45	8.4	8.4	8.4	76	4.4	3	10	135	0.0	1007.6	0	0.000	0.0
20110429 05:50	8.4	8.4	8.4	76	4.4	3	6	135	0.0	1007.7	0	0.000	0.0
20110429 05:55	8.4	8.4	8.4	76	4.4	3	6	135	0.0	1007.7	0	0.000	0.0
20110429 06:00	8.3	8.3	8.3	77	4.5	2	8	135	0.0	1007.7	0	0.000	0.0
20110429 06:05	8.3	8.3	8.3	77	4.5	5	8	135	0.0	1007.8	0	0.000	0.0
20110429 06:10	8.3	8.3	8.3	77	4.5	3	8	135	0.0	1007.9	2	0.000	0.0
20110429 06:15	8.3	8.3	8.3	78	4.7	2	6	135	0.0	1007.8	6	0.000	0.0
20110429 06:20	8.3	8.3	8.3	77	4.5	3	8	135	0.0	1007.8	9	0.000	0.0
20110429 06:25	8.3	8.3	8.3	78	4.7	5	10	135	0.0	1007.9	12	0.000	0.0
20110429 06:30	8.3	8.3	8.3	78	4.7	5	10	135	0.0	1007.8	15	0.000	0.0
20110429 06:35	8.4	8.4	8.4	78	4.8	5	10	112	0.0	1007.9	18	0.000	0.0
20110429 06:40	8.4	8.4	8.4	77	4.6	5	10	112	0.0	1007.9	19	0.000	0.0
20110429 06:45	8.4	7.6	8.4	77	4.6	6	11	135	0.0	1007.9	21	0.000	0.0
20110429 06:50	8.5	7.6	8.5	77	4.7	6	10	135	0.0	1007.9	22	0.000	0.0
20110429 06:55	8.6	7.7	8.6	77	4.8	6	14	112	0.0	1007.8	25	0.000	0.0
20110429 07:00	8.7	7.8	8.7	77	4.9	6	16	135	0.0	1007.8	31	0.025	0.0
20110429 07:05	8.8	8.0	8.8	77	5.0	6	11	112	0.0	1008.0	37	0.000	0.0
20110429 07:10	8.9	8.2	8.9	76	4.9	6	11	90	0.0	1008.0	42	0.000	0.0
20110429 07:15	9.1	7.9	9.1	76	5.1	8	11	135	0.0	1007.9	52	0.000	0.0
20110429 07:20	9.1	8.3	9.1	76	5.1	6	14	112	0.0	1008.0	63	0.000	0.0
20110429 07:25	9.2	8.4	9.2	76	5.2	6	11	90	0.0	1007.8	72	0.000	0.0
20110429 07:30	9.2	8.5	9.2	76	5.2	6	16	135	0.0	1007.8	79	0.000	0.0
20110429 07:35	9.2	8.5	9.2	76	5.2	6	11	135	0.0	1007.8	85	0.000	0.0
20110429 07:40	9.3	8.6	9.3	76	5.3	6	14	112	0.0	1007.8	91	0.000	0.0
20110429 07:45	9.4	8.4	9.4	76	5.4	8	16	135	0.0	1007.8	97	0.000	0.0
20110429 07:50	9.5	8.8	9.5	76	5.5	6	11	135	0.0	1007.7	106	0.000	0.0
20110429 07:55	9.6	8.2	9.6	76	5.6	10	16	135	0.0	1007.8	116	0.000	0.3
20110429 08:00	9.7	8.4	9.7	76	5.7	10	18	135	0.0	1007.8	124	0.051	0.5
20110429 08:05	9.9	9.2	9.9	75	5.7	6	18	112	0.0	1008.0	136	0.000	0.5
20110429 08:10	10.1	10.1	10.1	75	5.9	6	11	112	0.0	1008.0	164	0.000	0.6
20110429 08:15	10.3	10.3	10.3	74	5.9	8	18	112	0.0	1008.0	195	0.000	0.7
20110429 08:20	10.7	10.7	10.7	73	6.0	10	16	112	0.0	1007.9	227	0.000	0.8
20110429 08:25	11.0	11.0	11.0	72	6.1	10	18	112	0.0	1007.8	261	0.000	0.9
20110429 08:30	11.4	11.4	11.4	71	6.4	10	23	112	0.0	1007.8	336	0.000	1.1
20110429 08:35	11.9	11.9	11.9	70	6.6	10	18	112	0.0	1007.7	375	0.000	1.2
20110429 08:40	12.4	12.4	12.4	67	6.5	10	18	112	0.0	1007.7	397	0.000	1.3
20110429 08:45	12.9	12.9	12.9	66	6.7	11	21	112	0.0	1007.7	405	0.000	1.4
20110429 08:50	13.3	13.3	13.3	62	6.2	18	32	112	0.0	1007.6	390	0.000	1.4
20110429 08:55	13.4	13.4	13.4	63	6.5	11	19	112	0.0	1007.6	363	0.000	1.5
20110429 09:00	13.6	13.6	13.6	62	6.4	13	26	112	0.0	1007.6	245	0.178	1.4
20110429 09:05	13.5	13.5	13.5	62	6.4	13	23	112	0.0	1007.7	372	0.000	1.6
20110429 09:10	13.7	13.7	13.7	62	6.5	13	26	112	0.0	1007.6	426	0.000	1.7
20110429 09:15	13.9	13.9	13.9	62	6.7	13	27	112	0.0	1007.7	355	0.000	1.7
20110429 09:20	13.7	13.7	13.7	60	6.1	18	32	112	0.0	1007.7	276	0.000	1.7
20110429 09:25	13.6	13.6	13.6	61	6.2	11	21	112	0.0	1007.8	205	0.000	1.6
20110429 09:30	13.3	13.3	13.3	62	6.2	10	19	112	0.0	1007.9	225	0.000	1.7
20110429 09:35	13.3	13.3	13.3	63	6.4	8	19	112	0.0	1007.9	246	0.000	1.8
20110429 09:40	13.6	13.6	13.6	62	6.5	13	23	112	0.0	1007.9	259	0.000	1.9
20110429 09:45	13.8	13.8	13.8	61	6.4	16	24	112	0.0	1007.8	250	0.000	1.9
20110429 09:50	14.0	14.0	14.0	61	6.6	13	23	112	0.0	1007.8	249	0.000	2.1
20110429 09:55	14.3	14.3	14.3	62	7.1	13	23	112	0.0	1007.7	217	0.000	2.2
20110429 10:00	14.7	14.7	14.7	60	7.0	13	21	112	0.0	1007.6	194	0.203	2.2
20110429 10:05	14.9	14.9	14.9	60	7.2	11	18	135	0.0	1007.6	177	0.000	2.2
20110429 10:10	15.0	15.0	15.0	59	7.0	8	23	112	0.0	1007.7	161	0.000	2.2
20110429 10:15	15.1	15.1	15.1	58	6.9	14	24	112	0.0	1007.7	150	0.000	2.3
20110429 10:20	15.3	15.3	15.3	59	7.3	13	23	112	0.0	1007.6	346	0.000	2.3
20110429 10:25	15.5	15.5	15.5	57	7.0	13	23	112	0.0	1007.5	472	0.000	3.0
20110429 10:30	15.6	15.6	15.6	54	6.3	13	24	112	0.0	1007.4	474	0.000	3.2
20110429 10:35	15.7	15.7	15.7	56	7.0	10	19	112	0.0	1007.5	464	0.000	3.4
20110429 10:40	15.9	15.9	15.9	54	6.6	13	24	90	0.0	1007.4	644	0.000	3.9
20110429 10:45	16.0	16.0	16.0	53	6.4	16	24	90	0.0	1007.5	638	0.000	4.1
20110429 10:50	16.2	16.2	16.2	53	6.6	13	26	90	0.0	1007.4	675	0.000	4.4
20110429 10:55	16.4	16.4	16.4	51	6.2	16	31	90	0.0	1007.3	697	0.000	4.6
20110429 11:00	16.4	16.4	16.4	51	6.3	18	34	112	0.0	1007.1	713	0.330	4.8
20110429 11:05	16.6	16.6	16.6	52	6.7	13	24	112	0.0	1007.4	709	0.000	4.8
20110429 11:10	16.8	16.8	16.8	53	7.1	13	23	112	0.0	1007.3	723	0.000	4.9
20110429 11:15	17.0	17.0	17.0	51	6.8	14	24	90	0.0	1007.2	742	0.000	5.1
20110429 11:20	16.9	16.9	16.9	50	6.4	18	37	135	0.0	1007.2	660	0.000	4.9
20110429 11:25	16.8	16.8	16.8	50	6.3	16	31	112	0.0	1007.2	599	0.000	4.7
20110429 11:30	16.9	16.9	16.9	52	7.0	14	29	90	0.0	1007.1	740	0.000	5.4
20110429 11:35	17.1	17.1	17.1	49	6.3	19	32	112	0.0	1007.1	710	0.000	5.3
20110429 11:40	17.2	17.2	17.2	52	7.3	13	26	112	0.0	1006.9	701	0.000	5.3
20110429 11:45	17.3	17.3	17.3	49	6.5	14	26	112	0.0	1006.9	716	0.000	5.5
20110429 11:50	17.4	17.4	17.4	50	6.9	16	29	112	0.0	1006.8	755	0.000	5.6
20110429 11:55	17.5	17.5	17.5	50	7.0	16	32	112	0.0	1006.8	776	0.000	5.8
20110429 12:00	17.5	17.5	17.5	50	7.0	14	24	90	0.0	1006.8	838	0.483	6.3
20110429 12:05	17.7	17.7	17.7	49	6.8	14	27	90	0.0	1006.7	866	0.000	6.5
20110429 12:10	17.8	17.8	17.8	50	7.2	18	29	112	0.0	1006.7	854	0.000	6.4
20110429 12:15	17.9	17.9	17.9	49	7.0	14	27	112	0.0	1006.6	825	0.000	6.4
20110429 12:20	18.0	18.0	18.0	49	7.1	13	26	112	0.0	1006.6	805	0.000	6.3
20110429 12:25	18.1	18.1	18.1	49	7.2	14	27	112	0.0	1006.5	785	0.000	6.0
20110429 12:30	17.9	17.9	17.9	49	7.0	14	26	112	0.0	1006.6	733	0.000	6.0
20110429 12:35	17.9	17.9	17.9	50	7.4	14	23	112	0.0	1006.6	738	0.000	6.1
20110429 12:40	18.1	18.1	18.1	50	7.5	11	26	90	0.0	1006.5	803	0.000	6.3
20110429 12:45	18.1	18.1	18.1	51	7.8	11	23	90	0.0	1006.3	800	0.000	6.4
20110429 12:50	18.4	18.4	18.4	49	7.5	14	24	112	0.0	1006.4	807	0.000	6.4
20110429 12:55	18.4	18.4	18.4	47	6.9	16	29	112	0.0	1006.3	675	0.000	6.4
20110429 13:00	18.5	18.5	18.5	47	7.0	18	29	135	0.0	1006.2	732	0.533	5.6
20110429 13:05	18.4	18.4	18.4	49	7.5	16	27	112	0.0	1006.2	728	0.000	5.7
20110429 13:10	18.4	18.4	18.4	50	7.8	14	23	112	0.0	1006.1	700	0.000	6.0
20110429 13:15	18.5	18.5	18.5	50	7.9	14	26	135	0.0	1006.1	741	0.000	6.2
20110429 13:20	18.6	18.6	18.6	47	7.0	13	35	90	0.0	1006.1	791	0.000	6.5
20110429 13:25	18.6	18.6	18.6	49	7.7	11	31	90	0.0	1006.0	798	0.000	6.6
20110429 13:30	18.8	18.8	18.8	47	7.3	14	26	112	0.0	1006.0	872	0.000	6.7
20110429 13:35	19.1	19.1	19.1	44	6.5	18	31	112	0.0	1005.9	848	0.000	6.9
20110429 13:40	19.2	19.2	19.2	46	7.3	13	27	112	0.0	1005.8	909	0.000	6.8
20110429 13:45	19.4	19.4	19.4	44	6.8	19	37	112	0.0	1005.6	845	0.000	6.7
20110429 13:50	19.3	19.3	19.3	43	6.4	16	31	112	0.0	1005.8	796	0.000	6.2
20110429 13:55	19.4	19.4	19.4	45	7.1	13	26	112	0.0	1005.6	835	0.000	6.7
20110429 14:00	19.6	19.6	19.6	43	6.6	19	34	135	0.0	1005.6	843	0.559	6.7
20110429 14:05	19.4	19.4	19.4	43	6.5	19	32	112	0.0	1005.6	817	0.000	6.6
20110429 14:10	19.4	19.4	19.4	43	6.5	18	29	90	0.0	1005.4	760	0.000	5.1
20110429 14:15	19.3	19.3	19.3	43	6.4	19	32	90	0.0	1005.6	817	0.000	6.4
20110429 14:20	19.3	19.3	19.3	42	6.1	16	29	90	0.0	1005.5	790	0.000	6.2
20110429 14:25	19.3	19.3	19.3	43	6.4	18	34	90	0.0	1005.4	727	0.000	5.8
20110429 14:30	19.3	19.3	19.3	42	6.0	19	34	112	0.0	1005.2	725	0.000	5.4
20110429 14:35	19.4	19.4	19.4	41	5.8	21	29	112	0.0	1005.3	761	0.000	5.2
20110429 14:40	19.4	19.4	19.4	42	6.2	18	31	112	0.0	1005.3	711	0.000	5.2
20110429 14:45	19.4	19.4	19.4	43	6.5	14	29	90	0.0	1005.2	643	0.000	5.3
20110429 14:50	19.6	19.6	19.6	42	6.3	16	26	90	0.0	1005.2	773	0.000	5.6
20110429 14:55	19.7	19.7	19.7	42	6.4	13	26	135	0.0	1005.2	775	0.000	5.6
20110429 15:00	19.8	19.8	19.8	39	5.4	18	27	90	0.0	1004.9	734	0.559	5.4
20110429 15:05	19.7	19.7	19.7	41	6.0	16	31	90	0.0	1005.0	619	0.000	4.9
20110429 15:10	19.7	19.7	19.7	41	6.0	21	39	112	0.0	1005.0	731	0.000	5.3
20110429 15:15	19.7	19.7	19.7	40	5.7	21	40	112	0.0	1004.9	729	0.000	5.2
20110429 15:20	19.7	19.7	19.7	39	5.3	23	43	112	0.0	1004.8	714	0.000	5.0
20110429 15:25	19.7	19.7	19.7	42	6.4	19	43	135	0.0	1004.9	711	0.000	4.9
20110429 15:30	19.8	19.8	19.8	40	5.8	19	34	112	0.0	1004.8	702	0.000	4.8
20110429 15:35	19.7	19.7	19.7	40	5.7	16	31	112	0.0	1004.7	690	0.000	4.6
20110429 15:40	19.8	19.8	19.8	40	5.8	21	34	112	0.0	1004.6	684	0.000	4.5
20110429 15:45	19.9	19.9	19.9	41	6.3	19	32	112	0.0	1004.5	672	0.000	4.3
20110429 15:50	19.8	19.8	19.8	39	5.4	26	37	112	0.0	1004.6	666	0.000	4.2
20110429 15:55	19.6	19.6	19.6	42	6.3	18	27	112	0.0	1004.7	655	0.000	4.1
20110429 16:00	19.6	19.6	19.6	42	6.3	18	32	112	0.0	1004.7	641	0.559	3.9
20110429 16:05	19.8	19.8	19.8	41	6.1	21	37	112	0.0	1004.7	629	0.000	3.7
20110429 16:10	19.5	19.5	19.5	42	6.2	26	40	112	0.0	1004.7	616	0.000	3.2
20110429 16:15	19.6	19.6	19.6	43	6.6	23	37	112	0.0	1004.7	619	0.000	3.5
20110429 16:20	19.7	19.7	19.7	42	6.4	18	34	112	0.0	1004.8	603	0.000	3.3
20110429 16:25	19.7	19.7	19.7	42	6.4	18	32	112	0.0	1004.8	595	0.000	3.2
20110429 16:30	19.7	19.7	19.7	42	6.4	16	27	112	0.0	1004.8	584	0.000	3.0
20110429 16:35	19.7	19.7	19.7	43	6.8	14	32	90	0.0	1004.7	577	0.000	2.9
20110429 16:40	19.5	19.5	19.5	41	5.9	21	39	112	0.0	1004.8	578	0.000	2.4
20110429 16:45	19.3	19.3	19.3	44	6.7	13	32	112	0.0	1004.7	556	0.000	2.5
20110429 16:50	19.4	19.4	19.4	42	6.1	16	32	112	0.0	1004.7	539	0.000	2.4
20110429 16:55	19.6	19.6	19.6	42	6.3	16	26	112	0.0	1004.6	515	0.000	2.3
20110429 17:00	19.7	19.7	19.7	42	6.4	18	31	112	0.0	1004.5	566	0.457	2.2
20110429 17:05	19.9	19.9	19.9	44	7.3	14	27	112	0.0	1004.5	515	0.000	2.1
20110429 17:10	19.7	19.7	19.7	42	6.4	16	32	112	0.0	1004.5	491	0.000	2.1
20110429 17:15	19.5	19.5	19.5	42	6.2	18	31	90	0.0	1004.4	482	0.000	1.9
20110429 17:20	19.5	19.5	19.5	41	5.9	21	34	112	0.0	1004.4	452	0.000	1.9
20110429 17:25	19.3	19.3	19.3	41	5.7	21	35	112	0.0	1004.5	439	0.000	1.6
20110429 17:30	19.3	19.3	19.3	41	5.7	18	27	112	0.0	1004.5	344	0.000	1.5
20110429 17:35	19.3	19.3	19.3	41	5.7	18	32	112	0.0	1004.5	444	0.000	1.4
20110429 17:40	19.1	19.1	19.1	42	5.8	23	37	112	0.0	1004.5	306	0.000	1.2
20110429 17:45	18.9	18.9	18.9	43	6.1	18	29	112	0.0	1004.5	339	0.000	1.2
20110429 17:50	18.9	18.9	18.9	43	6.1	14	31	112	0.0	1004.5	375	0.000	1.2
20110429 17:55	18.9	18.9	18.9	44	6.4	13	23	112	0.0	1004.5	107	0.000	1.0
20110429 18:00	18.9	18.9	18.9	44	6.4	11	24	90	0.0	1004.4	382	0.356	1.1
20110429 18:05	18.9	18.9	18.9	43	6.1	13	29	90	0.0	1004.3	404	0.000	1.0
20110429 18:10	18.7	18.7	18.7	42	5.5	16	26	90	0.0	1004.4	182	0.000	0.9
20110429 18:15	18.4	18.4	18.4	43	5.6	14	26	112	0.0	1004.4	108	0.000	0.7
20110429 18:20	18.2	18.2	18.2	43	5.4	11	21	112	0.0	1004.5	165	0.000	0.7
20110429 18:25	18.5	18.5	18.5	43	5.7	11	23	135	0.0	1004.4	327	0.000	0.8
20110429 18:30	18.8	18.8	18.8	42	5.6	16	32	112	0.0	1004.2	320	0.000	0.7
20110429 18:35	18.8	18.8	18.8	43	6.0	13	24	90	0.0	1004.4	307	0.000	0.6
20110429 18:40	18.7	18.7	18.7	42	5.5	16	26	90	0.0	1004.3	286	0.000	0.6
20110429 18:45	18.6	18.6	18.6	42	5.4	16	32	112	0.0	1004.3	260	0.000	0.5
20110429 18:50	18.6	18.6	18.6	43	5.7	14	27	90	0.0	1004.4	211	0.000	0.2
20110429 18:55	18.4	18.4	18.4	44	6.0	13	24	112	0.0	1004.4	100	0.000	0.0
20110429 19:00	18.3	18.3	18.3	43	5.5	10	23	90	0.0	1004.4	93	0.229	0.0
20110429 19:05	18.2	18.2	18.2	44	5.8	11	24	90	0.0	1004.3	89	0.000	0.0
20110429 19:10	18.0	18.0	18.0	44	5.6	11	23	90	0.0	1004.4	84	0.000	0.0
20110429 19:15	17.8	17.8	17.8	44	5.4	8	18	112	0.0	1004.4	80	0.000	0.0
20110429 19:20	17.7	17.7	17.7	45	5.6	8	14	112	0.0	1004.5	76	0.000	0.0
20110429 19:25	17.6	17.6	17.6	45	5.5	11	19	112	0.0	1004.5	70	0.000	0.0
20110429 19:30	17.4	17.4	17.4	45	5.3	8	14	90	0.0	1004.7	64	0.000	0.0
20110429 19:35	17.2	17.2	17.2	45	5.2	11	23	90	0.0	1004.6	57	0.000	0.0
20110429 19:40	17.1	17.1	17.1	46	5.4	10	21	90	0.0	1004.8	51	0.000	0.0
20110429 19:45	17.0	17.0	17.0	46	5.3	6	13	112	0.0	1004.8	45	0.000	0.0
20110429 19:50	16.8	16.8	16.8	47	5.4	8	16	90	0.0	1004.9	38	0.000	0.0
20110429 19:55	16.7	16.7	16.7	47	5.3	6	18	112	0.0	1004.9	32	0.000	0.0
20110429 20:00	16.6	16.6	16.6	46	4.9	8	16	112	0.0	1004.9	25	0.102	0.0
20110429 20:05	16.5	16.5	16.5	47	5.1	8	16	90	0.0	1004.5	19	0.000	0.0
20110429 20:10	16.4	16.4	16.4	48	5.3	6	11	112	0.0	1004.7	13	0.000	0.0
20110429 20:15	16.2	16.2	16.2	48	5.1	6	10	90	0.0	1004.7	7	0.000	0.0
20110429 20:20	16.0	16.0	16.0	49	5.3	5	10	90	0.0	1004.7	1	0.000	0.0
20110429 20:25	15.8	15.8	15.8	50	5.4	5	10	90	0.0	1004.8	0	0.000	0.0
20110429 20:30	15.5	15.5	15.5	51	5.4	5	8	90	0.0	1004.7	0	0.000	0.0
20110429 20:35	15.2	15.2	15.2	52	5.4	5	11	90	0.0	1004.9	0	0.000	0.0
20110429 20:40	15.0	15.0	15.0	54	5.8	5	8	90	0.0	1004.8	0	0.000	0.0
20110429 20:45	14.7	14.7	14.7	54	5.5	6	11	90	0.0	1004.9	0	0.000	0.0
20110429 20:50	14.6	14.6	14.6	55	5.7	6	14	90	0.0	1004.9	0	0.000	0.0
20110429 20:55	14.6	14.6	14.6	56	5.9	8	14	90	0.0	1005.0	0	0.000	0.0
20110429 21:00	14.5	14.5	14.5	56	5.8	6	14	90	0.0	1005.1	0	0.051	0.0
20110429 21:05	14.4	14.4	14.4	56	5.8	6	14	90	0.0	1005.0	0	0.000	0.0
20110429 21:10	14.4	14.4	14.4	57	6.0	6	13	90	0.0	1005.1	0	0.000	0.0
20110429 21:15	14.4	14.4	14.4	57	6.0	6	16	90	0.0	1005.1	0	0.000	0.0
20110429 21:20	14.4	14.4	14.4	57	6.0	8	18	90	0.0	1005.2	0	0.000	0.0
20110429 21:25	14.3	14.3	14.3	57	5.9	8	18	90	0.0	1005.2	0	0.000	0.0
20110429 21:30	14.3	14.3	14.3	57	5.9	10	18	90	0.0	1005.2	0	0.000	0.0
20110429 21:35	14.2	14.2	14.2	57	5.8	8	14	90	0.0	1005.2	0	0.000	0.0
20110429 21:40	14.1	14.1	14.1	58	6.0	8	18	90	0.0	1005.4	0	0.000	0.0
20110429 21:45	14.1	14.1	14.1	58	5.9	10	16	112	0.0	1005.4	0	0.000	0.0
20110429 21:50	14.1	14.1	14.1	59	6.2	10	23	90	0.0	1005.4	0	0.000	0.0
20110429 21:55	14.0	14.0	14.0	59	6.1	11	23	90	0.0	1005.4	0	0.000	0.0
20110429 22:00	13.9	13.9	13.9	59	6.0	11	21	90	0.0	1005.4	0	0.076	0.0
20110429 22:05	13.7	13.7	13.7	60	6.1	8	16	90	0.0	1005.2	0	0.000	0.0
20110429 22:10	13.6	13.6	13.6	60	6.0	11	21	90	0.0	1005.2	0	0.000	0.0
20110429 22:15	13.6	13.6	13.6	60	5.9	11	21	112	0.0	1005.2	0	0.000	0.0
20110429 22:20	13.5	13.5	13.5	61	6.1	11	21	112	0.0	1005.2	0	0.000	0.0
20110429 22:25	13.4	13.4	13.4	61	6.1	11	24	90	0.0	1005.2	0	0.000	0.0
20110429 22:30	13.4	13.4	13.4	61	6.0	11	19	90	0.0	1005.3	0	0.000	0.0
20110429 22:35	13.2	13.2	13.2	62	6.1	10	18	90	0.0	1005.3	0	0.000	0.0
20110429 22:40	13.1	13.1	13.1	62	6.0	8	16	112	0.0	1005.3	0	0.000	0.0
20110429 22:45	12.9	12.9	12.9	63	6.1	8	16	90	0.0	1005.3	-100000	0.000	0.0
20110429 22:50	12.8	12.8	12.8	63	6.0	10	18	90	0.0	1005.4	0	0.000	0.0
20110429 22:55	12.8	12.8	12.8	63	5.9	11	23	90	0.0	1005.4	0	0.000	0.0
20110429 23:00	12.7	12.7	12.7	63	5.9	10	21	90	0.0	1005.4	0	0.051	0.0
20110429 23:05	12.7	12.7	12.7	64	6.0	10	19	90	0.0	1005.3	0	0.000	0.0
20110429 23:10	12.6	12.6	12.6	64	6.0	10	16	90	0.0	1005.3	0	0.000	0.0
20110429 23:15	12.6	12.6	12.6	64	5.9	10	21	90	0.0	1005.3	0	0.000	0.0
20110429 23:20	12.5	12.5	12.5	65	6.1	11	21	135	0.0	1005.3	0	0.000	0.0
20110429 23:25	12.4	12.4	12.4	65	6.0	11	21	112	0.0	1005.3	0	0.000	0.0
20110429 23:30	12.3	12.3	12.3	65	5.9	11	19	90	0.0	1005.3	0	0.000	0.0
20110429 23:35	12.3	12.3	12.3	66	6.1	10	23	90	0.0	1005.3	0	0.000	0.0
20110429 23:40	12.2	12.2	12.2	66	6.0	10	19	90	0.0	1005.3	0	0.000	0.0
20110429 23:45	12.1	12.1	12.1	66	5.9	10	21	112	0.0	1005.3	0	0.000	0.0
20110429 23:50	12.1	12.1	12.1	66	5.9	11	21	90	0.0	1005.3	0	0.000	0.0
20110429 23:55	12.1	12.1	12.1	66	5.9	11	21	112	0.0	1005.3	0	0.000	0.0



Please note the license to use and transfer of this data:
http://creativecommons.org/licenses/by-nc-sa/3.0/deed.en

Bitte beachten sie die Lizenz zur Verwertung und Weitergabe der Daten:
http://creativecommons.org/licenses/by-nc-sa/3.0/deed.de

zurück zur Übersicht der Archivdaten (Monats und Tagesdaten)

Cookies helfen bei der Bereitstellung von Inhalten. Durch die Nutzung dieser Seiten erklärst du dich damit einverstanden, dass Cookies auf deinem Rechner gespeichert werden. Weitere Information